createdAt,value
2022-12-08T00:00:54.389Z,101017.47
2022-12-08T00:03:21.070Z,101011.44
2022-12-08T00:06:07.688Z,101014.22
2022-12-08T00:08:53.168Z,101004.56
2022-12-08T00:11:19.968Z,101006.47
2022-12-08T00:13:46.456Z,100996.75
2022-12-08T00:16:13.056Z,100996.84
2022-12-08T00:18:39.607Z,100999.53
2022-12-08T00:21:06.366Z,100995.13
2022-12-08T00:23:32.883Z,100980.03
2022-12-08T00:26:03.631Z,100975.53
2022-12-08T00:28:30.233Z,100978.22
2022-12-08T00:30:56.868Z,100975.53
2022-12-08T00:33:23.964Z,100975.53
2022-12-08T00:35:50.501Z,100974.59
2022-12-08T00:38:17.004Z,100974.50
2022-12-08T00:40:45.304Z,100964.59
2022-12-08T00:43:11.904Z,100967.19
2022-12-08T00:45:38.433Z,100966.22
2022-12-08T00:48:05.299Z,100958.31
2022-12-08T00:50:31.864Z,100962.78
2022-12-08T00:52:58.464Z,100953.91
2022-12-08T00:55:24.916Z,100954.75
2022-12-08T00:57:51.441Z,100951.22
2022-12-08T01:00:18.280Z,100950.38
2022-12-08T01:02:44.805Z,100941.44
2022-12-08T01:05:11.290Z,100938.78
2022-12-08T01:07:37.928Z,100938.78
2022-12-08T01:10:05.257Z,100941.38
2022-12-08T01:12:31.949Z,100940.53
2022-12-08T01:15:02.317Z,100939.56
2022-12-08T01:17:29.448Z,100942.25
2022-12-08T01:19:56.000Z,100937.84
2022-12-08T01:22:23.627Z,100940.53
2022-12-08T01:24:50.169Z,100939.56
2022-12-08T01:27:16.724Z,100944.91
2022-12-08T01:29:43.276Z,100943.03
2022-12-08T01:32:09.791Z,100942.94
2022-12-08T01:34:36.300Z,100938.34
2022-12-08T01:37:02.874Z,100932.91
2022-12-08T01:39:30.699Z,100943.50
2022-12-08T01:41:57.167Z,100939.88
2022-12-08T01:44:23.698Z,100937.22
2022-12-08T01:46:52.460Z,100934.53
2022-12-08T01:49:31.006Z,100936.34
2022-12-08T01:52:11.531Z,100930.91
2022-12-08T01:54:52.294Z,100931.00
2022-12-08T01:57:25.887Z,100929.09
2022-12-08T02:00:10.216Z,100921.06
2022-12-08T02:02:58.242Z,100916.56
2022-12-08T02:05:28.412Z,100913.81
2022-12-08T02:07:56.042Z,100915.63
2022-12-08T02:10:25.126Z,100912.03
2022-12-08T02:12:54.954Z,100905.72
2022-12-08T02:15:34.036Z,100899.41
2022-12-08T02:18:11.420Z,100894.91
2022-12-08T02:20:40.804Z,100888.69
2022-12-08T02:23:22.049Z,100895.88
2022-12-08T02:26:22.368Z,100888.78
2022-12-08T02:29:05.620Z,100878.16
2022-12-08T02:32:23.792Z,100873.84
2022-12-08T02:35:02.790Z,100876.34
2022-12-08T02:37:38.319Z,100878.25
2022-12-08T02:40:21.674Z,100873.84
2022-12-08T02:42:57.007Z,100870.13
2022-12-08T02:45:41.253Z,100864.88
2022-12-08T02:48:09.186Z,100863.06
2022-12-08T02:50:35.851Z,100858.66
2022-12-08T02:55:46.732Z,100833.53
2022-12-08T02:58:30.093Z,100845.97
2022-12-08T03:01:20.489Z,100835.28
2022-12-08T03:04:20.947Z,100833.47
2022-12-08T03:06:57.041Z,100836.13
2022-12-08T03:09:44.678Z,100833.53
2022-12-08T03:12:23.848Z,100830.94
2022-12-08T03:14:55.215Z,100832.75
2022-12-08T03:17:24.620Z,100837.34
2022-12-08T03:19:53.608Z,100826.75
2022-12-08T03:22:24.089Z,100834.88
2022-12-08T03:24:51.353Z,100833.25
2022-12-08T03:27:26.454Z,100831.59
2022-12-08T03:29:56.539Z,100829.88
2022-12-08T03:32:32.015Z,100835.25
2022-12-08T03:35:00.692Z,100824.53
2022-12-08T03:37:28.318Z,100822.63
2022-12-08T03:39:55.201Z,100821.88
2022-12-08T03:42:22.026Z,100821.06
2022-12-08T03:44:48.550Z,100812.28
2022-12-08T03:47:15.068Z,100810.56
2022-12-08T03:49:41.620Z,100812.38
2022-12-08T03:52:08.123Z,100801.75
2022-12-08T03:54:34.677Z,100795.47
2022-12-08T03:57:01.177Z,100787.34
2022-12-08T03:59:27.661Z,100785.44
2022-12-08T04:01:54.286Z,100788.91
2022-12-08T04:04:20.806Z,100781.75
2022-12-08T04:06:47.414Z,100784.22
2022-12-08T04:09:13.955Z,100779.72
2022-12-08T04:11:40.504Z,100777.91
2022-12-08T04:14:07.019Z,100781.34
2022-12-08T04:16:33.625Z,100779.44
2022-12-08T04:19:00.208Z,100773.22
2022-12-08T04:21:27.818Z,100775.91
2022-12-08T04:24:00.622Z,100774.94
2022-12-08T04:26:27.819Z,100769.59
2022-12-08T04:28:54.349Z,100769.50
2022-12-08T04:31:20.970Z,100768.53
2022-12-08T04:33:48.586Z,100774.75
2022-12-08T04:36:15.254Z,100759.56
2022-12-08T04:38:41.790Z,100759.56
2022-12-08T04:41:08.611Z,100770.38
2022-12-08T04:43:35.892Z,100762.34
2022-12-08T04:46:02.383Z,100758.81
2022-12-08T04:48:28.894Z,100763.97
2022-12-08T04:50:55.450Z,100756.88
2022-12-08T04:53:22.141Z,100762.19
2022-12-08T04:55:49.665Z,100756.81
2022-12-08T04:58:18.984Z,100757.69
2022-12-08T05:00:46.341Z,100757.69
2022-12-08T05:03:13.392Z,100753.19
2022-12-08T05:05:40.762Z,100754.91
2022-12-08T05:08:07.638Z,100760.25
2022-12-08T05:10:34.236Z,100765.53
2022-12-08T05:13:01.014Z,100760.16
2022-12-08T05:15:28.039Z,100759.22
2022-12-08T05:17:54.672Z,100751.09
2022-12-08T05:20:21.311Z,100756.44
2022-12-08T05:22:47.842Z,100751.00
2022-12-08T05:25:14.920Z,100749.94
2022-12-08T05:27:41.989Z,100752.50
2022-12-08T05:30:08.769Z,100758.72
2022-12-08T05:32:35.283Z,100748.97
2022-12-08T05:35:01.916Z,100747.16
2022-12-08T05:37:28.603Z,100741.81
2022-12-08T05:39:55.212Z,100740.84
2022-12-08T05:42:24.721Z,100733.69
2022-12-08T05:44:51.928Z,100743.53
2022-12-08T05:47:18.457Z,100738.28
2022-12-08T05:49:45.175Z,100746.28
2022-12-08T05:52:11.719Z,100739.22
2022-12-08T05:54:38.408Z,100730.44
2022-12-08T05:57:05.064Z,100729.69
2022-12-08T05:59:31.534Z,100736.84
2022-12-08T06:01:58.093Z,100732.56
2022-12-08T06:04:24.611Z,100731.78
2022-12-08T06:06:51.128Z,100733.66
2022-12-08T06:09:17.579Z,100731.09
2022-12-08T06:11:46.402Z,100731.28
2022-12-08T06:14:13.388Z,100736.63
2022-12-08T06:16:40.134Z,100727.00
2022-12-08T06:19:06.993Z,100730.63
2022-12-08T06:21:33.524Z,100722.69
2022-12-08T06:24:00.028Z,100729.00
2022-12-08T06:26:26.603Z,100727.28
2022-12-08T06:28:53.271Z,100726.50
2022-12-08T06:31:25.169Z,100729.09
2022-12-08T06:33:52.437Z,100725.56
2022-12-08T06:36:22.239Z,100725.56
2022-12-08T06:38:49.110Z,100728.13
2022-12-08T06:41:16.339Z,100721.06
2022-12-08T06:43:43.589Z,100722.03
2022-12-08T06:46:14.386Z,100722.88
2022-12-08T06:48:41.450Z,100718.41
2022-12-08T06:51:14.304Z,100728.25
2022-12-08T06:53:41.362Z,100717.53
2022-12-08T06:56:08.911Z,100715.72
2022-12-08T06:58:35.565Z,100714.75
2022-12-08T07:01:11.523Z,100710.28
2022-12-08T07:03:38.922Z,100712.00
2022-12-08T07:06:06.076Z,100710.94
2022-12-08T07:08:33.873Z,100709.97
2022-12-08T07:11:06.759Z,100713.59
2022-12-08T07:13:33.271Z,100707.31
2022-12-08T07:15:59.774Z,100712.66
2022-12-08T07:18:26.288Z,100715.31
2022-12-08T07:20:52.828Z,100718.00
2022-12-08T07:23:19.295Z,100714.47
2022-12-08T07:25:45.924Z,100714.56
2022-12-08T07:28:12.529Z,100723.56
2022-12-08T07:30:39.513Z,100719.25
2022-12-08T07:33:06.645Z,100724.59
2022-12-08T07:35:35.074Z,100725.66
2022-12-08T07:38:01.995Z,100722.97
2022-12-08T07:40:28.570Z,100717.69
2022-12-08T07:42:55.177Z,100716.84
2022-12-08T07:45:24.593Z,100720.38
2022-12-08T07:47:54.794Z,100710.63
2022-12-08T07:50:21.304Z,100716.06
2022-12-08T07:52:48.753Z,100715.31
2022-12-08T07:55:15.276Z,100706.31
2022-12-08T07:57:41.808Z,100708.16
2022-12-08T08:00:08.947Z,100715.22
2022-12-08T08:02:39.007Z,100712.53
2022-12-08T08:05:06.460Z,100713.31
2022-12-08T08:07:33.361Z,100720.47
2022-12-08T08:09:59.883Z,100715.88
2022-12-08T08:12:33.630Z,100720.31
2022-12-08T08:15:01.336Z,100724.59
2022-12-08T08:17:28.660Z,100724.41
2022-12-08T08:19:55.655Z,100724.41
2022-12-08T08:22:22.249Z,100726.13
2022-12-08T08:24:48.717Z,100728.50
2022-12-08T08:27:15.228Z,100731.28
2022-12-08T08:29:41.772Z,100733.00
2022-12-08T08:32:08.461Z,100727.66
2022-12-08T08:34:34.921Z,100731.28
2022-12-08T08:37:01.545Z,100725.94
2022-12-08T08:39:30.083Z,100725.06
2022-12-08T08:41:56.586Z,100733.19
2022-12-08T08:44:23.299Z,100727.84
2022-12-08T08:46:49.959Z,100729.75
2022-12-08T08:49:16.557Z,100724.50
2022-12-08T08:51:43.764Z,100728.25
2022-12-08T08:54:10.537Z,100723.75
2022-12-08T08:56:37.000Z,100730.91
2022-12-08T08:59:03.873Z,100731.88
2022-12-08T09:01:30.698Z,100731.78
2022-12-08T09:03:58.093Z,100738.94
2022-12-08T09:06:26.010Z,100740.56
2022-12-08T09:08:52.618Z,100737.78
2022-12-08T09:11:19.501Z,100743.22
2022-12-08T09:13:56.198Z,100735.31
2022-12-08T09:16:23.146Z,100739.69
2022-12-08T09:18:50.491Z,100740.47
2022-12-08T09:21:22.195Z,100741.31
2022-12-08T09:23:54.467Z,100739.59
2022-12-08T09:26:22.505Z,100747.53
2022-12-08T09:28:50.663Z,100745.63
2022-12-08T09:31:19.333Z,100742.84
2022-12-08T09:33:46.358Z,100745.31
2022-12-08T09:36:13.516Z,100745.41
2022-12-08T09:38:40.784Z,100747.16
2022-12-08T09:41:58.511Z,100746.13
2022-12-08T09:44:48.981Z,100739.88
2022-12-08T09:47:18.208Z,100738.25
2022-12-08T09:50:10.612Z,100738.34
2022-12-08T09:52:59.412Z,100737.31
2022-12-08T09:55:50.522Z,100735.41
2022-12-08T09:58:27.628Z,100740.69
2022-12-08T10:00:54.212Z,100745.06
2022-12-08T10:03:24.306Z,100737.03
2022-12-08T10:06:01.090Z,100739.63
2022-12-08T10:08:36.187Z,100735.03
2022-12-08T10:11:13.612Z,100738.47
2022-12-08T10:14:00.119Z,100725.19
2022-12-08T10:16:35.559Z,100725.84
2022-12-08T10:19:10.983Z,100725.75
2022-12-08T10:21:40.584Z,100713.88
2022-12-08T10:24:17.956Z,100718.28
2022-12-08T10:26:45.590Z,100712.72
2022-12-08T10:29:13.659Z,100705.47
2022-12-08T10:31:40.298Z,100703.66
2022-12-08T10:34:23.140Z,100703.66
2022-12-08T10:36:58.718Z,100703.44
2022-12-08T10:39:40.221Z,100707.94
2022-12-08T10:42:15.757Z,100702.47
2022-12-08T10:44:57.880Z,100706.03
2022-12-08T10:47:26.794Z,100694.16
2022-12-08T10:50:10.189Z,100696.94
2022-12-08T10:52:41.066Z,100703.91
2022-12-08T10:55:18.336Z,100696.72
2022-12-08T10:57:44.993Z,100689.47
2022-12-08T11:00:26.992Z,100691.28
2022-12-08T11:02:57.427Z,100697.38
2022-12-08T11:05:29.233Z,100694.72
2022-12-08T11:07:56.625Z,100688.50
2022-12-08T11:10:34.231Z,100690.41
2022-12-08T11:13:27.133Z,100686.78
2022-12-08T11:15:55.286Z,100677.03
2022-12-08T11:18:28.148Z,100678.09
2022-12-08T11:21:07.688Z,100670.91
2022-12-08T11:23:36.215Z,100668.03
2022-12-08T11:26:31.646Z,100671.56
2022-12-08T11:28:58.534Z,100679.41
2022-12-08T11:31:35.269Z,100660.56
2022-12-08T11:34:03.160Z,100660.47
2022-12-08T11:36:33.306Z,100660.47
2022-12-08T11:39:03.059Z,100660.47
2022-12-08T11:41:35.915Z,100661.31
2022-12-08T11:44:40.772Z,100658.63
2022-12-08T11:47:20.645Z,100660.16
2022-12-08T11:49:50.450Z,100650.19
2022-12-08T11:52:45.119Z,100654.69
2022-12-08T11:55:37.050Z,100651.91
2022-12-08T11:58:18.725Z,100648.06
2022-12-08T12:00:45.627Z,100650.66
2022-12-08T12:03:25.281Z,100647.97
2022-12-08T12:06:38.092Z,100645.41
2022-12-08T12:08:55.824Z,100645.28
2022-12-08T12:11:51.683Z,100636.50
2022-12-08T12:14:39.761Z,100650.09
2022-12-08T12:17:21.223Z,100644.84
2022-12-08T12:19:49.003Z,100645.69
2022-12-08T12:22:20.414Z,100643.78
2022-12-08T12:24:51.468Z,100645.50
2022-12-08T12:27:29.950Z,100646.47
2022-12-08T12:30:08.283Z,100645.59
2022-12-08T12:32:45.472Z,100638.31
2022-12-08T12:35:28.608Z,100641.09
2022-12-08T12:38:00.571Z,100643.56
2022-12-08T12:40:34.127Z,100639.81
2022-12-08T12:43:00.608Z,100631.63
2022-12-08T12:45:31.508Z,100634.09
2022-12-08T12:47:58.895Z,100629.59
2022-12-08T12:50:34.261Z,100627.88
2022-12-08T12:53:03.061Z,100623.47
2022-12-08T12:55:56.200Z,100622.63
2022-12-08T12:58:36.117Z,100616.59
2022-12-08T13:01:28.936Z,100616.59
2022-12-08T13:04:07.422Z,100615.56
2022-12-08T13:06:40.756Z,100618.88
2022-12-08T13:09:20.052Z,100612.56
2022-12-08T13:11:53.311Z,100623.16
2022-12-08T13:14:48.711Z,100618.66
2022-12-08T13:17:28.289Z,100622.09
2022-12-08T13:19:57.934Z,100617.59
2022-12-08T13:23:09.383Z,100615.88
2022-12-08T13:25:47.325Z,100617.50
2022-12-08T13:28:24.097Z,100618.47
2022-12-08T13:31:00.527Z,100617.59
2022-12-08T13:33:39.648Z,100608.72
2022-12-08T13:36:27.797Z,100606.13
2022-12-08T13:38:56.667Z,100592.63
2022-12-08T13:41:37.015Z,100598.84
2022-12-08T13:47:33.395Z,100590.59
2022-12-08T13:58:44.249Z,100573.16
2022-12-08T14:01:19.837Z,100563.06
2022-12-08T14:06:47.260Z,100563.81
2022-12-08T14:09:18.758Z,100562.09
2022-12-08T14:11:50.897Z,100570.91
2022-12-08T14:14:53.960Z,100577.13
2022-12-08T14:17:15.869Z,100575.19
2022-12-08T14:19:59.872Z,100577.97
2022-12-08T14:22:34.554Z,100579.78
2022-12-08T14:25:01.333Z,100574.66
2022-12-08T14:27:33.548Z,100576.59
2022-12-08T14:30:28.213Z,100568.97
2022-12-08T14:32:58.625Z,100576.25
2022-12-08T14:35:33.705Z,100579.16
2022-12-08T14:38:02.580Z,100583.75
2022-12-08T14:40:40.191Z,100587.50
2022-12-08T14:43:09.691Z,100589.44
2022-12-08T14:45:39.031Z,100586.00
2022-12-08T14:48:40.781Z,100594.16
2022-12-08T14:51:19.397Z,100588.03
2022-12-08T14:54:01.519Z,100582.88
2022-12-08T14:56:41.125Z,100584.72
2022-12-08T14:59:15.249Z,100582.13
2022-12-08T15:01:43.389Z,100585.78
2022-12-08T15:04:23.263Z,100582.34
2022-12-08T15:06:52.745Z,100577.84
2022-12-08T15:09:34.300Z,100585.03
2022-12-08T15:12:06.675Z,100587.59
2022-12-08T15:14:37.244Z,100583.22
2022-12-08T15:17:24.504Z,100587.88
2022-12-08T15:19:59.480Z,100588.31
2022-12-08T15:22:26.749Z,100596.53
2022-12-08T15:24:53.901Z,100599.31
2022-12-08T15:27:23.403Z,100597.72
2022-12-08T15:29:50.504Z,100607.78
2022-12-08T15:32:23.172Z,100608.84
2022-12-08T15:34:50.208Z,100599.09
2022-12-08T15:37:24.647Z,100603.78
2022-12-08T15:39:54.893Z,100606.56
2022-12-08T15:42:21.410Z,100605.72
2022-12-08T15:44:48.034Z,100605.81
2022-12-08T15:47:23.656Z,100605.81
2022-12-08T15:49:55.331Z,100602.38
2022-12-08T15:52:24.507Z,100606.03
2022-12-08T15:54:51.295Z,100606.22
2022-12-08T15:57:53.061Z,100602.03
2022-12-08T16:00:51.139Z,100603.19
2022-12-08T16:09:12.524Z,100606.69
2022-12-08T16:12:06.631Z,100613.97
2022-12-08T16:15:39.147Z,100615.78
2022-12-08T16:17:21.139Z,100611.38
2022-12-08T16:19:48.964Z,100610.41
2022-12-08T16:25:18.103Z,100603.25
2022-12-08T16:28:17.259Z,100613.97
2022-12-08T16:30:33.669Z,100604.22
2022-12-08T16:33:00.261Z,100604.22
2022-12-08T16:35:26.799Z,100605.16
2022-12-08T16:37:53.566Z,100604.38
2022-12-08T16:40:20.117Z,100601.63
2022-12-08T16:42:48.553Z,100591.00
2022-12-08T16:45:27.873Z,100585.75
2022-12-08T16:47:57.124Z,100599.03
2022-12-08T16:50:29.088Z,100590.44
2022-12-08T16:53:06.477Z,100590.66
2022-12-08T16:55:34.438Z,100596.31
2022-12-08T16:58:02.617Z,100585.00
2022-12-08T17:00:31.595Z,100592.38
2022-12-08T17:02:58.962Z,100591.72
2022-12-08T17:05:25.830Z,100598.13
2022-12-08T17:07:53.537Z,100593.81
2022-12-08T17:10:24.097Z,100592.41
2022-12-08T17:12:50.999Z,100590.88
2022-12-08T17:15:20.417Z,100591.19
2022-12-08T17:17:47.075Z,100595.09
2022-12-08T17:20:16.507Z,100593.59
2022-12-08T17:22:43.079Z,100590.25
2022-12-08T17:25:10.135Z,100593.97
2022-12-08T17:27:37.551Z,100589.69
2022-12-08T17:30:05.831Z,100588.81
2022-12-08T17:32:38.963Z,100590.53
2022-12-08T17:35:06.510Z,100589.69
2022-12-08T17:37:33.464Z,100590.63
2022-12-08T17:40:00.081Z,100594.25
2022-12-08T17:42:27.238Z,100594.38
2022-12-08T17:44:54.718Z,100590.94
2022-12-08T17:47:21.560Z,100592.16
2022-12-08T17:49:48.120Z,100588.06
2022-12-08T17:52:14.658Z,100583.78
2022-12-08T17:54:41.216Z,100589.13
2022-12-08T17:57:07.852Z,100584.63
2022-12-08T17:59:34.494Z,100585.78
2022-12-08T18:02:01.297Z,100595.50
2022-12-08T18:04:28.751Z,100591.03
2022-12-08T18:06:55.383Z,100579.38
2022-12-08T18:09:21.972Z,100589.78
2022-12-08T18:11:48.539Z,100597.50
2022-12-08T18:14:15.310Z,100588.44
2022-12-08T18:16:44.592Z,100595.31
2022-12-08T18:19:12.676Z,100587.09
2022-12-08T18:21:40.445Z,100587.78
2022-12-08T18:24:08.105Z,100589.50
2022-12-08T18:26:35.238Z,100579.84
2022-12-08T18:29:02.119Z,100583.47
2022-12-08T18:31:28.675Z,100579.94
2022-12-08T18:33:55.240Z,100573.75
2022-12-08T18:36:24.459Z,100576.50
2022-12-08T18:38:52.455Z,100577.38
2022-12-08T18:41:24.380Z,100584.53
2022-12-08T18:43:51.655Z,100582.72
2022-12-08T18:46:18.337Z,100580.91
2022-12-08T18:48:49.675Z,100584.25
2022-12-08T18:51:21.305Z,100588.72
2022-12-08T18:53:49.867Z,100586.16
2022-12-08T18:56:25.900Z,100587.97
2022-12-08T18:58:54.623Z,100589.97
2022-12-08T19:01:23.415Z,100580.44
2022-12-08T19:04:20.076Z,100586.06
2022-12-08T19:06:38.515Z,100586.53
2022-12-08T19:09:05.376Z,100583.31
2022-12-08T19:11:31.826Z,100578.13
2022-12-08T19:13:58.388Z,100577.34
2022-12-08T19:16:24.952Z,100573.91
2022-12-08T19:18:51.484Z,100578.50
2022-12-08T19:21:18.003Z,100572.50
2022-12-08T19:23:44.566Z,100573.53
2022-12-08T19:26:12.133Z,100577.25
2022-12-08T19:28:40.975Z,100574.88
2022-12-08T19:31:08.904Z,100571.53
2022-12-08T19:33:36.958Z,100571.63
2022-12-08T19:36:17.890Z,100578.97
2022-12-08T19:39:03.125Z,100572.09
2022-12-08T19:41:48.300Z,100579.34
2022-12-08T19:44:42.976Z,100576.94
2022-12-08T19:47:09.889Z,100573.78
2022-12-08T19:49:36.756Z,100580.25
2022-12-08T19:52:04.581Z,100578.63
2022-12-08T19:54:31.172Z,100580.63
2022-12-08T19:56:57.785Z,100579.19
2022-12-08T19:59:27.651Z,100578.41
2022-12-08T20:01:55.715Z,100579.38
2022-12-08T20:04:24.073Z,100578.59
2022-12-08T20:06:52.283Z,100574.31
2022-12-08T20:09:19.298Z,100579.72
2022-12-08T20:11:46.064Z,100580.75
2022-12-08T20:14:12.839Z,100584.28
2022-12-08T20:16:41.658Z,100581.59
2022-12-08T20:19:09.272Z,100590.66
2022-12-08T20:21:35.847Z,100584.53
2022-12-08T20:24:04.474Z,100582.91
2022-12-08T20:26:31.163Z,100581.38
2022-12-08T20:28:57.719Z,100577.25
2022-12-08T20:31:27.100Z,100578.47
2022-12-08T20:33:54.176Z,100588.47
2022-12-08T20:36:21.583Z,100590.63
2022-12-08T20:38:49.833Z,100598.81
2022-12-08T20:41:17.375Z,100599.75
2022-12-08T20:43:45.329Z,100597.84
2022-12-08T20:46:14.981Z,100599.41
2022-12-08T20:48:42.287Z,100591.91
2022-12-08T20:51:11.724Z,100585.34
2022-12-08T20:53:38.301Z,100593.09
2022-12-08T20:56:04.964Z,100590.16
2022-12-08T20:58:31.645Z,100595.22
2022-12-08T21:00:58.181Z,100594.88
2022-12-08T21:03:24.988Z,100599.09
2022-12-08T21:05:52.139Z,100592.72
2022-12-08T21:08:19.681Z,100588.06
2022-12-08T21:10:53.485Z,100601.97
2022-12-08T21:13:20.096Z,100603.59
2022-12-08T21:15:47.380Z,100596.47
2022-12-08T21:18:15.930Z,100597.22
2022-12-08T21:20:43.399Z,100595.22
2022-12-08T21:23:10.096Z,100588.75
2022-12-08T21:25:41.017Z,100585.91
2022-12-08T21:28:08.417Z,100584.09
2022-12-08T21:30:35.131Z,100587.72
2022-12-08T21:33:01.764Z,100585.22
2022-12-08T21:35:28.541Z,100580.94
2022-12-08T21:37:55.267Z,100587.03
2022-12-08T21:40:21.963Z,100594.09
2022-12-08T21:42:48.673Z,100590.56
2022-12-08T21:45:17.694Z,100594.28
2022-12-08T21:47:46.264Z,100588.09
2022-12-08T21:50:14.332Z,100595.06
2022-12-08T21:52:44.009Z,100591.44
2022-12-08T21:55:12.532Z,100598.31
2022-12-08T21:57:39.680Z,100603.47
2022-12-08T22:00:09.289Z,100609.56
2022-12-08T22:02:36.006Z,100611.19
2022-12-08T22:05:03.166Z,100607.38
2022-12-08T22:07:29.999Z,100612.44
2022-12-08T22:09:56.582Z,100606.81
2022-12-08T22:12:23.279Z,100610.16
2022-12-08T22:14:50.999Z,100612.56
2022-12-08T22:17:18.656Z,100615.03
2022-12-08T22:19:45.352Z,100614.00
2022-12-08T22:22:12.087Z,100609.50
2022-12-08T22:24:38.673Z,100604.06
2022-12-08T22:27:05.220Z,100603.88
2022-12-08T22:29:31.952Z,100602.00
2022-12-08T22:31:58.585Z,100603.72
2022-12-08T22:34:25.046Z,100600.09
2022-12-08T22:36:51.532Z,100605.59
2022-12-08T22:39:18.019Z,100596.72
2022-12-08T22:41:44.786Z,100601.22
2022-12-08T22:44:12.559Z,100594.84
2022-12-08T22:46:39.382Z,100596.56
2022-12-08T22:49:05.940Z,100595.88
2022-12-08T22:51:35.792Z,100586.31
2022-12-08T22:54:02.291Z,100590.13
2022-12-08T22:56:29.005Z,100589.38
2022-12-08T22:58:55.657Z,100581.25
2022-12-08T23:01:25.443Z,100589.19
2022-12-08T23:03:52.267Z,100590.03
2022-12-08T23:06:19.193Z,100588.41
2022-12-08T23:08:46.690Z,100588.59
2022-12-08T23:11:13.332Z,100587.84
2022-12-08T23:13:40.752Z,100583.56
2022-12-08T23:16:11.753Z,100590.78
2022-12-08T23:18:41.684Z,100583.63
2022-12-08T23:21:11.712Z,100578.03
2022-12-08T23:23:38.658Z,100583.06
2022-12-08T23:26:16.090Z,100583.84
2022-12-08T23:28:42.650Z,100587.47
2022-12-08T23:31:09.347Z,100576.31
2022-12-08T23:33:36.338Z,100580.22
2022-12-08T23:36:03.124Z,100581.53
2022-12-08T23:38:29.861Z,100587.06
2022-12-08T23:41:02.069Z,100585.16
2022-12-08T23:43:28.726Z,100582.41
2022-12-08T23:45:55.717Z,100586.88
2022-12-08T23:48:22.355Z,100582.50
2022-12-08T23:50:49.095Z,100573.81
2022-12-08T23:53:16.510Z,100579.34
2022-12-08T23:55:43.021Z,100579.44
2022-12-08T23:58:09.552Z,100573.13
